sensor_id;sensor_type;location;lat;lon;timestamp;pressure;altitude;pressure_sealevel;temperature;humidity
21555;BME280;10938;44.794;-0.676;2022-08-21T00:01:46;101298.09;;;29.41;39.72
21555;BME280;10938;44.794;-0.676;2022-08-21T00:04:12;101301.50;;;29.92;39.02
21555;BME280;10938;44.794;-0.676;2022-08-21T00:06:46;101301.06;;;28.52;42.02
21555;BME280;10938;44.794;-0.676;2022-08-21T00:09:11;101302.72;;;31.60;35.67
21555;BME280;10938;44.794;-0.676;2022-08-21T00:11:39;101313.44;;;30.47;37.32
21555;BME280;10938;44.794;-0.676;2022-08-21T00:14:07;101304.78;;;28.84;40.74
21555;BME280;10938;44.794;-0.676;2022-08-21T00:16:34;101309.38;;;30.40;37.90
21555;BME280;10938;44.794;-0.676;2022-08-21T00:19:00;101297.81;;;29.46;39.47
21555;BME280;10938;44.794;-0.676;2022-08-21T00:21:25;101299.22;;;30.45;37.22
21555;BME280;10938;44.794;-0.676;2022-08-21T00:23:51;101295.81;;;31.42;35.22
21555;BME280;10938;44.794;-0.676;2022-08-21T00:26:17;101290.66;;;31.93;34.54
21555;BME280;10938;44.794;-0.676;2022-08-21T00:28:43;101289.97;;;31.07;35.72
21555;BME280;10938;44.794;-0.676;2022-08-21T00:31:12;101297.38;;;31.04;35.63
21555;BME280;10938;44.794;-0.676;2022-08-21T00:33:38;101289.94;;;29.74;38.01
21555;BME280;10938;44.794;-0.676;2022-08-21T00:36:13;101285.03;;;31.28;35.54
21555;BME280;10938;44.794;-0.676;2022-08-21T00:38:39;101280.84;;;32.83;32.65
21555;BME280;10938;44.794;-0.676;2022-08-21T00:41:11;101289.16;;;31.34;34.65
21555;BME280;10938;44.794;-0.676;2022-08-21T00:43:50;101293.91;;;31.85;34.23
21555;BME280;10938;44.794;-0.676;2022-08-21T00:46:17;101286.72;;;30.44;37.05
21555;BME280;10938;44.794;-0.676;2022-08-21T00:48:42;101287.69;;;30.57;36.32
21555;BME280;10938;44.794;-0.676;2022-08-21T00:51:13;101291.94;;;31.60;34.12
21555;BME280;10938;44.794;-0.676;2022-08-21T00:53:53;101291.44;;;30.99;35.29
21555;BME280;10938;44.794;-0.676;2022-08-21T00:56:29;101298.50;;;31.42;34.62
21555;BME280;10938;44.794;-0.676;2022-08-21T00:58:58;101303.94;;;30.70;36.24
21555;BME280;10938;44.794;-0.676;2022-08-21T01:05:21;101295.84;;;31.00;35.87
21555;BME280;10938;44.794;-0.676;2022-08-21T01:08:08;101307.22;;;33.05;31.69
21555;BME280;10938;44.794;-0.676;2022-08-21T01:10:35;101297.78;;;32.08;33.21
21555;BME280;10938;44.794;-0.676;2022-08-21T01:13:02;101295.97;;;32.98;32.02
21555;BME280;10938;44.794;-0.676;2022-08-21T01:15:33;101298.25;;;32.27;33.03
21555;BME280;10938;44.794;-0.676;2022-08-21T01:18:00;101300.03;;;30.76;35.59
21555;BME280;10938;44.794;-0.676;2022-08-21T01:20:26;101290.00;;;32.16;33.20
21555;BME280;10938;44.794;-0.676;2022-08-21T01:22:51;101291.00;;;30.17;36.22
21555;BME280;10938;44.794;-0.676;2022-08-21T01:25:17;101291.03;;;30.47;36.19
21555;BME280;10938;44.794;-0.676;2022-08-21T01:27:44;101288.06;;;30.06;36.75
21555;BME280;10938;44.794;-0.676;2022-08-21T01:32:38;101284.75;;;29.07;38.62
21555;BME280;10938;44.794;-0.676;2022-08-21T01:35:24;101286.56;;;29.06;39.05
21555;BME280;10938;44.794;-0.676;2022-08-21T01:37:52;101281.78;;;28.29;40.57
21555;BME280;10938;44.794;-0.676;2022-08-21T01:40:18;101281.84;;;28.61;40.17
21555;BME280;10938;44.794;-0.676;2022-08-21T01:42:45;101293.84;;;29.04;39.04
21555;BME280;10938;44.794;-0.676;2022-08-21T01:45:12;101286.03;;;28.67;39.92
21555;BME280;10938;44.794;-0.676;2022-08-21T01:47:38;101276.25;;;27.96;41.99
21555;BME280;10938;44.794;-0.676;2022-08-21T01:50:07;101286.91;;;29.16;39.00
21555;BME280;10938;44.794;-0.676;2022-08-21T01:52:33;101278.84;;;29.33;38.57
21555;BME280;10938;44.794;-0.676;2022-08-21T01:54:58;101268.69;;;29.54;38.21
21555;BME280;10938;44.794;-0.676;2022-08-21T01:57:24;101273.47;;;27.80;41.44
21555;BME280;10938;44.794;-0.676;2022-08-21T01:59:49;101276.31;;;28.47;39.76
21555;BME280;10938;44.794;-0.676;2022-08-21T02:02:15;101278.22;;;27.92;41.06
21555;BME280;10938;44.794;-0.676;2022-08-21T02:04:40;101275.13;;;27.47;42.45
21555;BME280;10938;44.794;-0.676;2022-08-21T02:07:06;101274.69;;;27.92;41.67
21555;BME280;10938;44.794;-0.676;2022-08-21T02:09:32;101271.06;;;29.44;38.36
21555;BME280;10938;44.794;-0.676;2022-08-21T02:11:57;101267.72;;;28.24;40.57
21555;BME280;10938;44.794;-0.676;2022-08-21T02:14:22;101264.66;;;28.48;40.00
21555;BME280;10938;44.794;-0.676;2022-08-21T02:16:51;101273.53;;;28.83;39.28
21555;BME280;10938;44.794;-0.676;2022-08-21T02:19:23;101271.31;;;28.57;39.91
21555;BME280;10938;44.794;-0.676;2022-08-21T02:21:55;101273.84;;;28.77;38.97
21555;BME280;10938;44.794;-0.676;2022-08-21T02:24:20;101278.06;;;28.48;39.76
21555;BME280;10938;44.794;-0.676;2022-08-21T02:26:46;101275.16;;;28.19;40.67
21555;BME280;10938;44.794;-0.676;2022-08-21T02:29:12;101278.28;;;28.27;40.34
21555;BME280;10938;44.794;-0.676;2022-08-21T02:31:38;101273.25;;;29.05;38.83
21555;BME280;10938;44.794;-0.676;2022-08-21T02:34:03;101276.06;;;28.69;39.12
21555;BME280;10938;44.794;-0.676;2022-08-21T02:36:29;101267.56;;;28.94;38.81
21555;BME280;10938;44.794;-0.676;2022-08-21T02:38:55;101275.09;;;29.36;38.16
21555;BME280;10938;44.794;-0.676;2022-08-21T02:41:21;101273.69;;;28.46;39.74
21555;BME280;10938;44.794;-0.676;2022-08-21T02:43:47;101278.31;;;27.91;40.45
21555;BME280;10938;44.794;-0.676;2022-08-21T02:46:14;101288.53;;;28.36;40.01
21555;BME280;10938;44.794;-0.676;2022-08-21T02:48:40;101285.78;;;28.20;40.30
21555;BME280;10938;44.794;-0.676;2022-08-21T02:51:12;101279.22;;;28.26;40.36
21555;BME280;10938;44.794;-0.676;2022-08-21T02:53:38;101276.81;;;28.38;40.01
21555;BME280;10938;44.794;-0.676;2022-08-21T02:56:07;101280.25;;;28.75;39.41
21555;BME280;10938;44.794;-0.676;2022-08-21T02:58:40;101266.38;;;29.32;37.82
21555;BME280;10938;44.794;-0.676;2022-08-21T03:01:07;101269.22;;;29.92;36.47
21555;BME280;10938;44.794;-0.676;2022-08-21T03:03:35;101267.34;;;30.82;35.12
21555;BME280;10938;44.794;-0.676;2022-08-21T03:06:03;101272.59;;;30.69;34.98
21555;BME280;10938;44.794;-0.676;2022-08-21T03:08:28;101272.94;;;31.07;34.19
21555;BME280;10938;44.794;-0.676;2022-08-21T03:10:54;101270.22;;;30.79;34.73
21555;BME280;10938;44.794;-0.676;2022-08-21T03:13:20;101259.53;;;30.91;34.22
21555;BME280;10938;44.794;-0.676;2022-08-21T03:15:48;101259.84;;;31.01;34.00
21555;BME280;10938;44.794;-0.676;2022-08-21T03:18:13;101258.94;;;30.86;34.13
21555;BME280;10938;44.794;-0.676;2022-08-21T03:20:41;101252.13;;;30.67;34.86
21555;BME280;10938;44.794;-0.676;2022-08-21T03:23:07;101260.13;;;30.82;34.34
21555;BME280;10938;44.794;-0.676;2022-08-21T03:25:34;101261.75;;;30.71;34.32
21555;BME280;10938;44.794;-0.676;2022-08-21T03:28:02;101249.44;;;30.67;34.82
21555;BME280;10938;44.794;-0.676;2022-08-21T03:30:29;101249.81;;;31.17;33.39
21555;BME280;10938;44.794;-0.676;2022-08-21T03:32:57;101250.03;;;31.14;33.40
21555;BME280;10938;44.794;-0.676;2022-08-21T03:35:23;101253.31;;;31.19;33.37
21555;BME280;10938;44.794;-0.676;2022-08-21T03:37:48;101253.16;;;31.35;33.37
21555;BME280;10938;44.794;-0.676;2022-08-21T03:40:16;101251.28;;;31.63;32.84
21555;BME280;10938;44.794;-0.676;2022-08-21T03:42:41;101244.06;;;31.50;33.21
21555;BME280;10938;44.794;-0.676;2022-08-21T03:45:08;101245.47;;;31.70;32.63
21555;BME280;10938;44.794;-0.676;2022-08-21T03:47:34;101236.22;;;31.74;32.42
21555;BME280;10938;44.794;-0.676;2022-08-21T03:50:01;101243.25;;;30.50;34.59
21555;BME280;10938;44.794;-0.676;2022-08-21T03:52:26;101243.13;;;30.38;34.71
21555;BME280;10938;44.794;-0.676;2022-08-21T03:54:51;101235.16;;;29.45;36.32
21555;BME280;10938;44.794;-0.676;2022-08-21T03:57:18;101232.19;;;29.50;36.36
21555;BME280;10938;44.794;-0.676;2022-08-21T03:59:44;101232.03;;;30.72;34.35
21555;BME280;10938;44.794;-0.676;2022-08-21T04:02:10;101243.16;;;29.92;35.29
21555;BME280;10938;44.794;-0.676;2022-08-21T04:04:38;101248.84;;;29.88;35.47
21555;BME280;10938;44.794;-0.676;2022-08-21T04:07:03;101244.22;;;29.74;35.64
21555;BME280;10938;44.794;-0.676;2022-08-21T04:09:29;101253.78;;;29.64;35.72
21555;BME280;10938;44.794;-0.676;2022-08-21T04:11:55;101254.28;;;29.24;36.59
21555;BME280;10938;44.794;-0.676;2022-08-21T04:14:21;101251.84;;;29.19;36.95
21555;BME280;10938;44.794;-0.676;2022-08-21T04:16:47;101259.56;;;28.42;38.47
21555;BME280;10938;44.794;-0.676;2022-08-21T04:19:13;101254.69;;;29.00;36.99
21555;BME280;10938;44.794;-0.676;2022-08-21T04:21:40;101266.72;;;29.42;36.21
21555;BME280;10938;44.794;-0.676;2022-08-21T04:24:06;101263.59;;;29.34;36.71
21555;BME280;10938;44.794;-0.676;2022-08-21T04:26:33;101264.47;;;29.34;36.87
21555;BME280;10938;44.794;-0.676;2022-08-21T04:29:00;101264.59;;;29.94;35.02
21555;BME280;10938;44.794;-0.676;2022-08-21T04:31:25;101265.09;;;30.00;34.93
21555;BME280;10938;44.794;-0.676;2022-08-21T04:33:51;101270.91;;;30.38;34.07
21555;BME280;10938;44.794;-0.676;2022-08-21T04:36:17;101268.44;;;29.90;35.20
21555;BME280;10938;44.794;-0.676;2022-08-21T04:38:43;101270.41;;;30.02;35.16
21555;BME280;10938;44.794;-0.676;2022-08-21T04:41:08;101262.34;;;29.39;35.52
21555;BME280;10938;44.794;-0.676;2022-08-21T04:43:34;101264.63;;;29.47;35.58
21555;BME280;10938;44.794;-0.676;2022-08-21T04:46:00;101266.44;;;29.46;35.26
21555;BME280;10938;44.794;-0.676;2022-08-21T04:48:26;101270.03;;;30.08;34.52
21555;BME280;10938;44.794;-0.676;2022-08-21T04:51:16;101273.97;;;29.87;34.78
21555;BME280;10938;44.794;-0.676;2022-08-21T04:53:48;101273.31;;;29.52;34.89
21555;BME280;10938;44.794;-0.676;2022-08-21T04:56:31;101273.03;;;29.41;35.46
21555;BME280;10938;44.794;-0.676;2022-08-21T04:59:02;101276.56;;;30.04;34.70
21555;BME280;10938;44.794;-0.676;2022-08-21T05:01:31;101279.59;;;30.43;33.51
21555;BME280;10938;44.794;-0.676;2022-08-21T05:03:59;101278.19;;;31.51;31.91
21555;BME280;10938;44.794;-0.676;2022-08-21T05:06:27;101277.47;;;29.42;35.05
21555;BME280;10938;44.794;-0.676;2022-08-21T05:08:55;101277.69;;;30.45;34.82
21555;BME280;10938;44.794;-0.676;2022-08-21T05:11:21;101282.16;;;29.38;35.48
21555;BME280;10938;44.794;-0.676;2022-08-21T05:13:48;101276.72;;;29.23;35.77
21555;BME280;10938;44.794;-0.676;2022-08-21T05:16:14;101281.94;;;29.26;36.29
21555;BME280;10938;44.794;-0.676;2022-08-21T05:18:41;101289.94;;;29.58;35.81
21555;BME280;10938;44.794;-0.676;2022-08-21T05:21:06;101294.34;;;30.80;33.74
21555;BME280;10938;44.794;-0.676;2022-08-21T05:23:32;101294.16;;;30.09;33.91
21555;BME280;10938;44.794;-0.676;2022-08-21T05:25:57;101306.72;;;30.25;33.97
21555;BME280;10938;44.794;-0.676;2022-08-21T05:28:23;101312.78;;;30.28;34.16
21555;BME280;10938;44.794;-0.676;2022-08-21T05:30:49;101310.97;;;30.13;34.54
21555;BME280;10938;44.794;-0.676;2022-08-21T05:33:14;101306.63;;;30.56;33.83
21555;BME280;10938;44.794;-0.676;2022-08-21T05:35:39;101299.34;;;30.12;34.43
21555;BME280;10938;44.794;-0.676;2022-08-21T05:38:06;101308.78;;;30.35;34.34
21555;BME280;10938;44.794;-0.676;2022-08-21T05:40:32;101308.94;;;30.32;34.70
21555;BME280;10938;44.794;-0.676;2022-08-21T05:42:58;101311.00;;;30.43;34.48
21555;BME280;10938;44.794;-0.676;2022-08-21T05:45:27;101305.94;;;30.52;34.74
21555;BME280;10938;44.794;-0.676;2022-08-21T05:47:53;101306.06;;;30.65;34.58
21555;BME280;10938;44.794;-0.676;2022-08-21T05:50:19;101307.59;;;30.09;35.91
21555;BME280;10938;44.794;-0.676;2022-08-21T05:52:45;101311.38;;;30.81;34.09
21555;BME280;10938;44.794;-0.676;2022-08-21T05:55:10;101306.06;;;31.50;32.84
21555;BME280;10938;44.794;-0.676;2022-08-21T05:57:36;101300.94;;;31.74;33.10
21555;BME280;10938;44.794;-0.676;2022-08-21T06:00:03;101303.16;;;31.12;33.55
21555;BME280;10938;44.794;-0.676;2022-08-21T06:02:29;101297.25;;;31.48;33.28
21555;BME280;10938;44.794;-0.676;2022-08-21T06:04:56;101302.38;;;31.38;33.88
21555;BME280;10938;44.794;-0.676;2022-08-21T06:07:22;101298.03;;;32.18;32.35
21555;BME280;10938;44.794;-0.676;2022-08-21T06:09:47;101307.72;;;32.59;31.79
21555;BME280;10938;44.794;-0.676;2022-08-21T06:12:13;101312.91;;;33.38;30.80
21555;BME280;10938;44.794;-0.676;2022-08-21T06:14:40;101314.38;;;34.39;29.42
21555;BME280;10938;44.794;-0.676;2022-08-21T06:17:09;101317.53;;;36.01;28.02
21555;BME280;10938;44.794;-0.676;2022-08-21T06:19:35;101321.00;;;37.48;25.53
21555;BME280;10938;44.794;-0.676;2022-08-21T06:22:01;101331.13;;;41.40;22.08
21555;BME280;10938;44.794;-0.676;2022-08-21T06:24:27;101336.13;;;43.16;19.11
21555;BME280;10938;44.794;-0.676;2022-08-21T06:26:53;101339.25;;;43.05;18.68
21555;BME280;10938;44.794;-0.676;2022-08-21T06:29:20;101317.25;;;40.21;19.89
21555;BME280;10938;44.794;-0.676;2022-08-21T06:31:50;101324.31;;;38.39;21.91
21555;BME280;10938;44.794;-0.676;2022-08-21T06:34:16;101320.31;;;37.25;23.61
21555;BME280;10938;44.794;-0.676;2022-08-21T06:36:42;101319.72;;;35.64;25.48
21555;BME280;10938;44.794;-0.676;2022-08-21T06:39:07;101327.69;;;34.88;26.11
21555;BME280;10938;44.794;-0.676;2022-08-21T06:41:33;101327.66;;;35.23;26.06
21555;BME280;10938;44.794;-0.676;2022-08-21T06:43:59;101326.19;;;34.61;26.72
21555;BME280;10938;44.794;-0.676;2022-08-21T06:46:28;101326.72;;;34.54;26.86
21555;BME280;10938;44.794;-0.676;2022-08-21T06:48:54;101327.84;;;34.97;26.25
21555;BME280;10938;44.794;-0.676;2022-08-21T06:51:20;101330.09;;;33.37;28.79
21555;BME280;10938;44.794;-0.676;2022-08-21T06:53:45;101313.91;;;32.87;28.90
21555;BME280;10938;44.794;-0.676;2022-08-21T06:56:11;101320.41;;;32.72;29.46
21555;BME280;10938;44.794;-0.676;2022-08-21T06:58:36;101327.53;;;34.32;28.27
21555;BME280;10938;44.794;-0.676;2022-08-21T07:01:02;101329.19;;;40.38;22.26
21555;BME280;10938;44.794;-0.676;2022-08-21T07:03:34;101337.75;;;42.70;18.75
21555;BME280;10938;44.794;-0.676;2022-08-21T07:06:00;101330.09;;;44.44;17.53
21555;BME280;10938;44.794;-0.676;2022-08-21T07:08:27;101331.94;;;48.25;14.22
21555;BME280;10938;44.794;-0.676;2022-08-21T07:10:55;101325.53;;;48.18;13.66
21555;BME280;10938;44.794;-0.676;2022-08-21T07:13:21;101323.81;;;45.39;15.58
21555;BME280;10938;44.794;-0.676;2022-08-21T07:15:47;101340.03;;;47.19;15.29
21555;BME280;10938;44.794;-0.676;2022-08-21T07:18:13;101343.97;;;49.42;12.79
21555;BME280;10938;44.794;-0.676;2022-08-21T07:20:39;101351.84;;;47.06;13.60
21555;BME280;10938;44.794;-0.676;2022-08-21T07:23:09;101348.97;;;48.94;13.10
21555;BME280;10938;44.794;-0.676;2022-08-21T07:25:36;101343.00;;;49.11;12.49
21555;BME280;10938;44.794;-0.676;2022-08-21T07:28:01;101338.31;;;48.19;13.06
21555;BME280;10938;44.794;-0.676;2022-08-21T07:30:27;101342.84;;;47.66;13.20
21555;BME280;10938;44.794;-0.676;2022-08-21T07:32:53;101337.00;;;48.15;12.80
21555;BME280;10938;44.794;-0.676;2022-08-21T07:35:20;101346.69;;;50.31;11.25
21555;BME280;10938;44.794;-0.676;2022-08-21T07:37:45;101358.00;;;51.11;11.33
21555;BME280;10938;44.794;-0.676;2022-08-21T07:40:12;101363.19;;;53.72;9.58
21555;BME280;10938;44.794;-0.676;2022-08-21T07:42:42;101357.44;;;53.79;8.94
21555;BME280;10938;44.794;-0.676;2022-08-21T07:45:09;101361.34;;;55.06;8.49
21555;BME280;10938;44.794;-0.676;2022-08-21T07:47:35;101363.56;;;54.21;8.44
21555;BME280;10938;44.794;-0.676;2022-08-21T07:50:00;101348.81;;;49.98;10.68
21555;BME280;10938;44.794;-0.676;2022-08-21T07:52:26;101339.72;;;46.30;14.05
21555;BME280;10938;44.794;-0.676;2022-08-21T07:54:51;101331.31;;;44.64;14.57
21555;BME280;10938;44.794;-0.676;2022-08-21T07:57:17;101328.16;;;42.66;16.94
21555;BME280;10938;44.794;-0.676;2022-08-21T07:59:43;101319.94;;;40.13;18.80
21555;BME280;10938;44.794;-0.676;2022-08-21T08:02:08;101329.66;;;39.06;20.11
21555;BME280;10938;44.794;-0.676;2022-08-21T08:04:34;101316.47;;;40.46;18.91
21555;BME280;10938;44.794;-0.676;2022-08-21T08:06:59;101322.53;;;43.70;16.03
21555;BME280;10938;44.794;-0.676;2022-08-21T08:09:25;101342.38;;;45.67;14.34
21555;BME280;10938;44.794;-0.676;2022-08-21T08:11:50;101335.19;;;46.93;12.73
21555;BME280;10938;44.794;-0.676;2022-08-21T08:14:16;101330.47;;;46.87;13.37
21555;BME280;10938;44.794;-0.676;2022-08-21T08:16:42;101329.94;;;44.97;14.23
21555;BME280;10938;44.794;-0.676;2022-08-21T08:19:08;101325.94;;;44.02;15.62
21555;BME280;10938;44.794;-0.676;2022-08-21T08:21:33;101334.78;;;42.96;16.08
21555;BME280;10938;44.794;-0.676;2022-08-21T08:24:00;101330.00;;;43.84;15.66
21555;BME280;10938;44.794;-0.676;2022-08-21T08:26:25;101330.78;;;44.46;15.21
21555;BME280;10938;44.794;-0.676;2022-08-21T08:28:51;101331.69;;;42.10;17.37
21555;BME280;10938;44.794;-0.676;2022-08-21T08:31:16;101323.41;;;39.24;20.22
21555;BME280;10938;44.794;-0.676;2022-08-21T08:33:42;101321.72;;;38.47;20.75
21555;BME280;10938;44.794;-0.676;2022-08-21T08:36:14;101321.66;;;37.10;22.47
21555;BME280;10938;44.794;-0.676;2022-08-21T08:38:39;101318.25;;;38.17;21.26
21555;BME280;10938;44.794;-0.676;2022-08-21T08:41:16;101330.56;;;38.88;20.33
21555;BME280;10938;44.794;-0.676;2022-08-21T08:43:51;101322.25;;;38.89;20.67
21555;BME280;10938;44.794;-0.676;2022-08-21T08:46:23;101319.84;;;39.50;20.11
21555;BME280;10938;44.794;-0.676;2022-08-21T08:48:57;101321.13;;;38.34;21.91
21555;BME280;10938;44.794;-0.676;2022-08-21T08:54:05;101316.47;;;40.11;20.17
21555;BME280;10938;44.794;-0.676;2022-08-21T08:56:33;101316.94;;;40.24;19.88
21555;BME280;10938;44.794;-0.676;2022-08-21T08:59:07;101312.19;;;37.75;22.15
21555;BME280;10938;44.794;-0.676;2022-08-21T09:01:34;101311.22;;;40.18;19.91
21555;BME280;10938;44.794;-0.676;2022-08-21T09:03:59;101314.16;;;39.71;20.90
21555;BME280;10938;44.794;-0.676;2022-08-21T09:06:43;101314.28;;;44.98;16.04
21555;BME280;10938;44.794;-0.676;2022-08-21T09:09:41;101316.06;;;43.07;17.18
21555;BME280;10938;44.794;-0.676;2022-08-21T09:12:29;101300.66;;;39.60;20.06
21555;BME280;10938;44.794;-0.676;2022-08-21T09:15:40;101304.56;;;38.93;20.72
21555;BME280;10938;44.794;-0.676;2022-08-21T09:21:09;101316.69;;;37.95;22.41
21555;BME280;10938;44.794;-0.676;2022-08-21T09:24:02;101310.34;;;38.71;21.28
21555;BME280;10938;44.794;-0.676;2022-08-21T09:26:50;101308.50;;;38.14;21.55
21555;BME280;10938;44.794;-0.676;2022-08-21T09:29:20;101313.22;;;36.30;23.93
21555;BME280;10938;44.794;-0.676;2022-08-21T09:31:47;101320.53;;;34.64;26.19
21555;BME280;10938;44.794;-0.676;2022-08-21T09:34:25;101321.56;;;36.18;24.50
21555;BME280;10938;44.794;-0.676;2022-08-21T09:36:51;101327.38;;;35.37;25.43
21555;BME280;10938;44.794;-0.676;2022-08-21T09:42:04;101340.91;;;37.18;23.03
21555;BME280;10938;44.794;-0.676;2022-08-21T09:44:32;101340.72;;;37.10;23.63
21555;BME280;10938;44.794;-0.676;2022-08-21T09:46:58;101343.53;;;38.47;22.41
21555;BME280;10938;44.794;-0.676;2022-08-21T09:49:33;101331.59;;;38.10;22.62
21555;BME280;10938;44.794;-0.676;2022-08-21T09:51:59;101347.81;;;38.40;21.91
21555;BME280;10938;44.794;-0.676;2022-08-21T09:54:38;101348.28;;;39.11;22.03
21555;BME280;10938;44.794;-0.676;2022-08-21T09:57:14;101331.31;;;38.90;21.02
21555;BME280;10938;44.794;-0.676;2022-08-21T10:00:15;101319.97;;;38.66;22.29
21555;BME280;10938;44.794;-0.676;2022-08-21T10:02:43;101323.16;;;38.32;22.55
21555;BME280;10938;44.794;-0.676;2022-08-21T10:05:17;101324.16;;;37.93;22.59
21555;BME280;10938;44.794;-0.676;2022-08-21T10:07:43;101328.81;;;37.91;23.03
21555;BME280;10938;44.794;-0.676;2022-08-21T10:34:46;101322.41;;;35.53;25.63
21555;BME280;10938;44.794;-0.676;2022-08-21T10:40:30;101326.31;;;36.36;24.48
21555;BME280;10938;44.794;-0.676;2022-08-21T10:48:24;101319.19;;;35.92;24.78
21555;BME280;10938;44.794;-0.676;2022-08-21T10:51:20;101315.72;;;36.54;24.18
21555;BME280;10938;44.794;-0.676;2022-08-21T10:56:25;101327.84;;;38.88;21.25
21555;BME280;10938;44.794;-0.676;2022-08-21T11:02:08;101324.44;;;39.77;20.27
21555;BME280;10938;44.794;-0.676;2022-08-21T11:04:48;101330.13;;;40.46;19.93
21555;BME280;10938;44.794;-0.676;2022-08-21T11:07:21;101332.31;;;38.89;21.96
21555;BME280;10938;44.794;-0.676;2022-08-21T11:09:49;101318.22;;;39.30;21.67
21555;BME280;10938;44.794;-0.676;2022-08-21T11:12:28;101318.44;;;39.74;21.17
21555;BME280;10938;44.794;-0.676;2022-08-21T11:15:43;101308.34;;;38.73;21.52
21555;BME280;10938;44.794;-0.676;2022-08-21T11:17:54;101299.34;;;39.64;20.29
21555;BME280;10938;44.794;-0.676;2022-08-21T11:23:07;101313.13;;;38.33;22.42
21555;BME280;10938;44.794;-0.676;2022-08-21T11:25:40;101307.94;;;38.10;22.31
21555;BME280;10938;44.794;-0.676;2022-08-21T11:28:10;101317.16;;;39.04;21.57
21555;BME280;10938;44.794;-0.676;2022-08-21T11:30:51;101320.97;;;39.21;21.07
21555;BME280;10938;44.794;-0.676;2022-08-21T11:34:32;101306.25;;;38.09;22.34
21555;BME280;10938;44.794;-0.676;2022-08-21T11:51:00;101289.84;;;38.57;20.99
21555;BME280;10938;44.794;-0.676;2022-08-21T11:56:12;101301.47;;;37.03;23.07
21555;BME280;10938;44.794;-0.676;2022-08-21T11:58:45;101291.53;;;37.62;22.09
21555;BME280;10938;44.794;-0.676;2022-08-21T12:01:19;101283.41;;;37.32;22.23
21555;BME280;10938;44.794;-0.676;2022-08-21T12:03:58;101285.88;;;38.42;21.82
21555;BME280;10938;44.794;-0.676;2022-08-21T12:06:36;101285.66;;;38.73;20.81
21555;BME280;10938;44.794;-0.676;2022-08-21T12:09:30;101288.28;;;40.28;19.26
21555;BME280;10938;44.794;-0.676;2022-08-21T12:12:22;101285.59;;;39.38;20.78
21555;BME280;10938;44.794;-0.676;2022-08-21T12:14:49;101283.41;;;39.87;20.63
21555;BME280;10938;44.794;-0.676;2022-08-21T12:17:21;101273.19;;;40.24;20.15
21555;BME280;10938;44.794;-0.676;2022-08-21T12:20:25;101267.13;;;39.68;20.19
21555;BME280;10938;44.794;-0.676;2022-08-21T12:22:53;101266.09;;;39.78;19.87
21555;BME280;10938;44.794;-0.676;2022-08-21T12:25:20;101272.81;;;38.17;21.31
21555;BME280;10938;44.794;-0.676;2022-08-21T12:27:52;101276.69;;;38.53;20.94
21555;BME280;10938;44.794;-0.676;2022-08-21T12:30:34;101265.91;;;37.25;22.32
21555;BME280;10938;44.794;-0.676;2022-08-21T12:33:03;101268.31;;;36.47;24.08
21555;BME280;10938;44.794;-0.676;2022-08-21T12:35:37;101275.53;;;38.36;21.72
21555;BME280;10938;44.794;-0.676;2022-08-21T12:40:49;101261.31;;;37.16;22.43
21555;BME280;10938;44.794;-0.676;2022-08-21T12:43:29;101265.50;;;38.08;21.91
21555;BME280;10938;44.794;-0.676;2022-08-21T12:45:56;101280.19;;;38.92;21.08
21555;BME280;10938;44.794;-0.676;2022-08-21T12:48:33;101278.75;;;39.79;20.11
21555;BME280;10938;44.794;-0.676;2022-08-21T12:51:17;101259.72;;;38.59;20.49
21555;BME280;10938;44.794;-0.676;2022-08-21T12:53:54;101263.03;;;38.62;20.83
21555;BME280;10938;44.794;-0.676;2022-08-21T12:56:26;101265.06;;;37.34;22.52
21555;BME280;10938;44.794;-0.676;2022-08-21T12:58:57;101262.88;;;37.78;22.69
21555;BME280;10938;44.794;-0.676;2022-08-21T13:01:31;101273.03;;;38.72;21.28
21555;BME280;10938;44.794;-0.676;2022-08-21T13:04:03;101266.72;;;38.71;21.57
21555;BME280;10938;44.794;-0.676;2022-08-21T13:06:32;101260.81;;;38.76;20.51
21555;BME280;10938;44.794;-0.676;2022-08-21T13:09:05;101261.63;;;38.01;21.44
21555;BME280;10938;44.794;-0.676;2022-08-21T13:11:32;101261.81;;;39.21;20.25
21555;BME280;10938;44.794;-0.676;2022-08-21T13:14:00;101258.91;;;39.32;20.17
21555;BME280;10938;44.794;-0.676;2022-08-21T13:16:28;101250.31;;;39.27;20.29
21555;BME280;10938;44.794;-0.676;2022-08-21T13:19:02;101251.19;;;39.18;20.75
21555;BME280;10938;44.794;-0.676;2022-08-21T13:21:34;101257.06;;;38.40;21.27
21555;BME280;10938;44.794;-0.676;2022-08-21T13:24:34;101258.78;;;38.02;21.25
21555;BME280;10938;44.794;-0.676;2022-08-21T13:27:00;101249.88;;;38.20;21.10
21555;BME280;10938;44.794;-0.676;2022-08-21T13:29:33;101242.66;;;37.80;21.29
21555;BME280;10938;44.794;-0.676;2022-08-21T13:32:04;101243.88;;;38.16;21.60
21555;BME280;10938;44.794;-0.676;2022-08-21T13:34:34;101229.25;;;39.10;19.92
21555;BME280;10938;44.794;-0.676;2022-08-21T13:37:04;101235.69;;;39.63;19.18
21555;BME280;10938;44.794;-0.676;2022-08-21T13:39:30;101224.91;;;37.07;22.55
21555;BME280;10938;44.794;-0.676;2022-08-21T13:42:00;101225.41;;;37.41;22.35
21555;BME280;10938;44.794;-0.676;2022-08-21T13:44:43;101228.66;;;37.75;22.00
21555;BME280;10938;44.794;-0.676;2022-08-21T13:47:11;101227.25;;;36.61;22.87
21555;BME280;10938;44.794;-0.676;2022-08-21T13:49:47;101215.59;;;36.08;23.75
21555;BME280;10938;44.794;-0.676;2022-08-21T13:52:20;101219.66;;;35.28;25.14
21555;BME280;10938;44.794;-0.676;2022-08-21T13:54:55;101205.91;;;35.62;23.80
21555;BME280;10938;44.794;-0.676;2022-08-21T13:57:29;101206.84;;;36.46;23.11
21555;BME280;10938;44.794;-0.676;2022-08-21T14:00:18;101204.88;;;36.78;22.61
21555;BME280;10938;44.794;-0.676;2022-08-21T14:02:50;101207.63;;;36.37;23.08
21555;BME280;10938;44.794;-0.676;2022-08-21T14:05:33;101196.31;;;36.11;23.26
21555;BME280;10938;44.794;-0.676;2022-08-21T14:10:26;101196.25;;;37.62;21.49
21555;BME280;10938;44.794;-0.676;2022-08-21T14:13:03;101187.97;;;37.05;22.28